Time;durP1;ratioP1;P1;durP2;ratioP2;P2;SDS_P1;SDS_P2;PMS_P1;PMS_P2;Temp;Humidity;BMP_temperature;BMP_pressure;BME280_temperature;BME280_humidity;BME280_pressure;Samples;Min_cycle;Max_cycle;Signal;HPM_P1;HPM_P2
2024/03/24 00:01:38;;;;;;;8.20;6.38;;;;;;;3.83;100.00;99723.47;4961628;28;20039;-82
2024/03/24 00:04:05;;;;;;;7.25;6.32;;;;;;;3.78;100.00;99732.09;4966781;28;20039;-84
2024/03/24 00:06:31;;;;;;;7.45;6.53;;;;;;;3.74;100.00;99726.88;4955569;28;20046;-83
2024/03/24 00:08:58;;;;;;;12.05;7.25;;;;;;;3.75;100.00;99728.59;4969059;28;20070;-83
2024/03/24 00:11:24;;;;;;;9.02;6.53;;;;;;;3.80;100.00;99724.31;4961956;28;20023;-83
2024/03/24 00:13:53;;;;;;;11.15;6.53;;;;;;;3.76;100.00;99712.22;4961454;28;20058;-83
2024/03/24 00:16:19;;;;;;;8.90;6.22;;;;;;;3.82;100.00;99717.44;4958300;28;20043;-81
2024/03/24 00:18:45;;;;;;;8.43;7.43;;;;;;;3.81;100.00;99708.78;4961948;28;20437;-86
2024/03/24 00:21:11;;;;;;;7.90;7.10;;;;;;;3.80;100.00;99707.06;4954050;28;20039;-86
2024/03/24 00:23:38;;;;;;;9.73;6.78;;;;;;;3.85;100.00;99712.25;4953968;28;20051;-83
2024/03/24 00:26:03;;;;;;;11.25;7.05;;;;;;;3.84;100.00;99715.69;4952554;28;20059;-83
2024/03/24 00:28:30;;;;;;;10.27;7.10;;;;;;;3.87;100.00;99701.91;4963856;28;20224;-84
2024/03/24 00:30:55;;;;;;;10.00;7.40;;;;;;;3.91;100.00;99704.50;4969049;28;20047;-83
2024/03/24 00:33:22;;;;;;;11.57;7.32;;;;;;;3.93;100.00;99707.09;4958067;28;20115;-83
2024/03/24 00:35:47;;;;;;;10.18;7.70;;;;;;;3.94;100.00;99694.16;4968423;28;20050;-84
2024/03/24 00:38:14;;;;;;;10.05;6.60;;;;;;;3.91;100.00;99683.81;4979130;28;20225;-84
2024/03/24 00:40:40;;;;;;;10.48;7.75;;;;;;;3.89;100.00;99689.84;4957884;28;20122;-83
2024/03/24 00:43:07;;;;;;;16.50;8.00;;;;;;;3.84;100.00;99686.38;4960615;28;20138;-84
2024/03/24 00:45:32;;;;;;;9.82;7.65;;;;;;;3.82;100.00;99683.78;4952571;28;20118;-83
2024/03/24 00:47:58;;;;;;;9.82;7.10;;;;;;;3.88;100.00;99686.38;4967900;28;20145;-84
2024/03/24 00:50:24;;;;;;;9.38;8.00;;;;;;;3.87;100.00;99688.94;4951372;28;20103;-83
2024/03/24 00:52:51;;;;;;;7.72;6.65;;;;;;;3.81;100.00;99688.06;4955711;28;20181;-83
2024/03/24 00:55:16;;;;;;;12.55;8.57;;;;;;;3.82;100.00;99673.44;4968401;28;20077;-84
2024/03/24 00:57:45;;;;;;;9.50;7.68;;;;;;;3.89;100.00;99669.13;4967964;28;20477;-84
2024/03/24 01:00:14;;;;;;;11.27;6.78;;;;;;;3.92;100.00;99663.94;4971717;28;20046;-83
2024/03/24 01:02:39;;;;;;;11.80;7.72;;;;;;;3.89;100.00;99654.44;4972789;28;20045;-83
2024/03/24 01:05:06;;;;;;;10.68;7.35;;;;;;;3.86;100.00;99662.22;4969143;28;20042;-84
2024/03/24 01:07:32;;;;;;;7.78;6.75;;;;;;;3.80;100.00;99660.44;4953746;28;20054;-84
2024/03/24 01:09:59;;;;;;;11.20;7.60;;;;;;;3.80;100.00;99662.19;4965180;28;20498;-83
2024/03/24 01:12:26;;;;;;;10.50;7.47;;;;;;;3.75;100.00;99659.56;5151494;23;20153;-84
2024/03/24 01:14:53;;;;;;;10.55;7.43;;;;;;;3.71;100.00;99657.00;4984802;28;20050;-83
2024/03/24 01:17:18;;;;;;;10.45;7.40;;;;;;;3.66;100.00;99640.59;4985395;28;20042;-83
2024/03/24 01:19:45;;;;;;;13.35;7.47;;;;;;;3.65;100.00;99634.56;4992505;28;20039;-83
2024/03/24 01:22:11;;;;;;;13.25;8.27;;;;;;;3.64;100.00;99641.44;4980023;28;20157;-84
2024/03/24 01:24:39;;;;;;;10.38;7.70;;;;;;;3.63;100.00;99633.66;4975145;28;20140;-84
2024/03/24 01:27:04;;;;;;;11.13;7.93;;;;;;;3.61;100.00;99632.78;4977133;28;20132;-85
2024/03/24 01:29:32;;;;;;;11.63;7.65;;;;;;;3.60;100.00;99616.41;4979580;28;20406;-84
2024/03/24 01:31:57;;;;;;;11.48;8.70;;;;;;;3.53;100.00;99614.66;4998428;28;20042;-84
2024/03/24 01:34:26;;;;;;;13.45;7.97;;;;;;;3.54;100.00;99610.34;4978868;28;20053;-84
2024/03/24 01:36:52;;;;;;;11.23;8.45;;;;;;;3.55;100.00;99612.09;4981133;28;20152;-83
2024/03/24 01:39:19;;;;;;;10.63;7.70;;;;;;;3.54;100.00;99606.03;4990239;28;20070;-84
2024/03/24 01:41:44;;;;;;;17.10;9.35;;;;;;;3.50;100.00;99598.28;4977515;28;21458;-84
2024/03/24 01:44:11;;;;;;;11.02;8.70;;;;;;;3.50;100.00;99609.47;4979931;28;20056;-82
2024/03/24 01:46:36;;;;;;;14.40;8.07;;;;;;;3.49;100.00;99597.41;4984987;28;20080;-83
2024/03/24 01:49:05;;;;;;;13.68;9.23;;;;;;;3.54;100.00;99587.06;4984458;28;20046;-82
2024/03/24 01:51:35;;;;;;;12.57;8.65;;;;;;;3.59;100.00;99590.53;4986336;28;20110;-84
2024/03/24 01:54:03;;;;;;;14.00;9.27;;;;;;;3.57;100.00;99581.88;4978226;28;20390;-83
2024/03/24 01:56:31;;;;;;;11.45;8.20;;;;;;;3.57;100.00;99579.31;4988360;28;20042;-83
2024/03/24 01:58:58;;;;;;;10.95;8.43;;;;;;;3.61;100.00;99581.03;4975705;28;20410;-84
2024/03/24 02:01:24;;;;;;;17.40;9.15;;;;;;;3.65;100.00;99572.44;4986870;28;20112;-83
2024/03/24 02:03:50;;;;;;;12.63;8.30;;;;;;;3.61;100.00;99568.97;4978386;28;20429;-83
2024/03/24 02:06:16;;;;;;;14.32;9.40;;;;;;;3.60;100.00;99568.97;4984161;28;20042;-82
2024/03/24 02:08:42;;;;;;;14.77;10.38;;;;;;;3.58;100.00;99560.34;4976082;28;20689;-85
2024/03/24 02:11:08;;;;;;;11.85;9.15;;;;;;;3.60;100.00;99556.03;4976472;28;20046;-84
2024/03/24 02:13:35;;;;;;;15.23;9.82;;;;;;;3.65;100.00;99562.09;4975028;28;20117;-83
2024/03/24 02:16:01;;;;;;;14.65;9.18;;;;;;;3.66;100.00;99550.00;4978818;28;20050;-84
2024/03/24 02:18:27;;;;;;;15.52;10.00;;;;;;;3.73;100.00;99542.25;4983075;28;20045;-82
2024/03/24 02:20:55;;;;;;;13.10;9.15;;;;;;;3.73;100.00;99546.53;4979476;28;20100;-83
2024/03/24 02:23:24;;;;;;;12.88;8.68;;;;;;;3.72;100.00;99535.34;4980443;28;20114;-83
2024/03/24 02:25:53;;;;;;;14.90;9.50;;;;;;;3.74;100.00;99532.75;4979344;28;20054;-78
2024/03/24 02:28:19;;;;;;;16.10;9.85;;;;;;;3.72;100.00;99519.81;4983569;28;20047;-83
2024/03/24 02:30:48;;;;;;;13.40;8.65;;;;;;;3.72;100.00;99518.94;4976796;28;20089;-83
2024/03/24 02:33:13;;;;;;;11.18;8.18;;;;;;;3.76;100.00;99515.50;4989064;28;20048;-84
2024/03/24 02:35:42;;;;;;;15.20;8.82;;;;;;;3.73;100.00;99508.59;4975769;28;20050;-84
2024/03/24 02:38:08;;;;;;;14.68;9.00;;;;;;;3.84;100.00;99515.50;4993782;28;20129;-82
2024/03/24 02:40:34;;;;;;;11.90;8.15;;;;;;;3.90;100.00;99518.09;4974314;28;20815;-82
2024/03/24 02:43:00;;;;;;;9.48;8.40;;;;;;;3.95;100.00;99514.63;4979469;28;20133;-82
2024/03/24 02:45:26;;;;;;;11.30;8.10;;;;;;;3.97;100.00;99509.44;4983285;28;20117;-83
2024/03/24 02:47:52;;;;;;;12.05;8.70;;;;;;;4.07;100.00;99506.00;4978070;28;20081;-82
2024/03/24 02:50:18;;;;;;;10.45;7.05;;;;;;;4.17;100.00;99498.22;4998138;28;20042;-82
2024/03/24 02:52:44;;;;;;;9.85;7.10;;;;;;;4.18;100.00;99499.94;4978886;28;20145;-85
2024/03/24 02:55:10;;;;;;;9.32;7.45;;;;;;;4.21;100.00;99490.44;4986351;28;20136;-84
2024/03/24 02:57:36;;;;;;;9.90;6.80;;;;;;;4.24;100.00;99495.59;4996259;28;20050;-84
2024/03/24 03:00:04;;;;;;;11.25;6.93;;;;;;;4.23;100.00;99480.06;4978674;28;20050;-83
2024/03/24 03:02:33;;;;;;;10.75;7.22;;;;;;;4.26;100.00;99480.94;4981187;28;20121;-83
2024/03/24 03:05:00;;;;;;;11.63;6.70;;;;;;;4.32;100.00;99485.22;4978622;28;20047;-84
2024/03/24 03:07:26;;;;;;;8.90;6.60;;;;;;;4.30;100.00;99476.59;4977796;28;20097;-83
2024/03/24 03:09:55;;;;;;;14.75;7.38;;;;;;;4.37;100.00;99472.25;4993304;28;20050;-84
2024/03/24 03:12:20;;;;;;;13.27;7.38;;;;;;;4.39;100.00;99458.41;4996427;28;20046;-84
2024/03/24 03:14:47;;;;;;;8.07;6.25;;;;;;;4.41;100.00;99463.63;4979984;28;20046;-82
2024/03/24 03:17:13;;;;;;;13.13;7.95;;;;;;;4.45;100.00;99455.81;4979764;28;20054;-83
2024/03/24 03:19:40;;;;;;;13.00;8.10;;;;;;;4.51;100.00;99456.66;4986533;28;20133;-84
2024/03/24 03:22:05;;;;;;;8.70;7.07;;;;;;;4.54;100.00;99447.16;4997446;28;20038;-83
2024/03/24 03:24:32;;;;;;;11.02;6.97;;;;;;;4.55;100.00;99448.00;4979146;28;20058;-83
2024/03/24 03:26:57;;;;;;;12.88;7.75;;;;;;;4.55;100.00;99445.41;4979510;28;20073;-83
2024/03/24 03:29:24;;;;;;;11.32;6.30;;;;;;;4.52;100.00;99425.56;4996093;28;20046;-83
2024/03/24 03:31:49;;;;;;;18.08;8.23;;;;;;;4.57;100.00;99439.34;4978613;28;20409;-84
2024/03/24 03:34:16;;;;;;;12.13;7.38;;;;;;;4.64;100.00;99435.00;4978643;28;20052;-84
2024/03/24 03:36:42;;;;;;;11.20;6.55;;;;;;;4.62;100.00;99428.97;4999132;28;20048;-83
2024/03/24 03:39:08;;;;;;;12.23;6.20;;;;;;;4.67;100.00;99427.22;4981877;28;20141;-83
2024/03/24 03:41:34;;;;;;;12.00;6.82;;;;;;;4.67;100.00;99424.66;4987069;28;20527;-85
2024/03/24 03:44:00;;;;;;;9.88;7.32;;;;;;;4.65;100.00;99416.00;4994213;28;20136;-81
2024/03/24 03:46:26;;;;;;;19.42;7.68;;;;;;;4.66;100.00;99403.91;4986452;28;20042;-82
2024/03/24 03:48:53;;;;;;;8.77;5.90;;;;;;;4.59;100.00;99406.53;4981277;28;20129;-82
2024/03/24 03:51:19;;;;;;;11.65;7.07;;;;;;;4.55;100.00;99386.69;4996498;28;20061;-82
2024/03/24 03:53:49;;;;;;;10.43;6.72;;;;;;;4.54;100.00;99399.66;4999025;28;20046;-84
2024/03/24 03:56:15;;;;;;;9.40;6.50;;;;;;;4.51;100.00;99399.66;4975448;28;20426;-83
2024/03/24 03:58:41;;;;;;;12.18;7.25;;;;;;;4.42;100.00;99396.25;4996520;28;20133;-83
2024/03/24 04:01:07;;;;;;;13.68;6.72;;;;;;;4.42;100.00;99396.25;4991630;28;20057;-83
2024/03/24 04:03:35;;;;;;;11.23;6.55;;;;;;;4.45;100.00;99398.81;4979434;28;20070;-85
2024/03/24 04:06:04;;;;;;;13.73;6.80;;;;;;;4.43;100.00;99400.56;4978169;28;20148;-84
2024/03/24 04:08:31;;;;;;;10.80;6.93;;;;;;;4.44;100.00;99385.88;4999803;28;20397;-83
2024/03/24 04:10:57;;;;;;;8.98;6.68;;;;;;;4.37;100.00;99384.16;4978592;28;20116;-84
2024/03/24 04:13:23;;;;;;;8.43;5.68;;;;;;;4.38;100.00;99383.28;4978570;28;20613;-84
2024/03/24 04:15:49;;;;;;;6.90;5.63;;;;;;;4.42;100.00;99385.00;4977826;28;20050;-82
2024/03/24 04:18:19;;;;;;;10.75;6.38;;;;;;;4.45;100.00;99383.25;4995003;28;20113;-84
2024/03/24 04:20:45;;;;;;;7.78;5.75;;;;;;;4.53;100.00;99384.97;4979873;28;20569;-83
2024/03/24 04:23:11;;;;;;;13.90;6.32;;;;;;;4.56;100.00;99377.16;4978234;28;20177;-83
2024/03/24 04:25:37;;;;;;;7.88;5.93;;;;;;;4.56;100.00;99370.28;4979148;28;20061;-82
2024/03/24 04:28:04;;;;;;;9.55;5.85;;;;;;;4.59;100.00;99362.47;4979447;28;20874;-85
2024/03/24 04:30:32;;;;;;;8.27;5.97;;;;;;;4.68;100.00;99360.69;4999948;28;20053;-83
2024/03/24 04:33:00;;;;;;;8.93;5.22;;;;;;;4.69;100.00;99371.03;4981529;28;20046;-83
2024/03/24 04:35:26;;;;;;;9.93;5.60;;;;;;;4.69;100.00;99358.09;4983140;28;20039;-84
2024/03/24 04:37:52;;;;;;;6.93;5.75;;;;;;;4.71;100.00;99361.53;4978107;28;20553;-84
2024/03/24 04:40:19;;;;;;;11.18;5.57;;;;;;;4.73;100.00;99362.41;4976757;28;20049;-85
2024/03/24 04:42:46;;;;;;;10.23;6.32;;;;;;;4.57;100.00;99359.00;4994581;28;20117;-83
2024/03/24 04:45:15;;;;;;;9.80;6.15;;;;;;;4.46;100.00;99366.00;4978053;28;20049;-85
2024/03/24 04:47:42;;;;;;;8.85;6.68;;;;;;;4.29;100.00;99366.09;4978462;28;20050;-82
2024/03/24 04:50:08;;;;;;;10.85;6.05;;;;;;;4.17;100.00;99363.53;4979606;28;20101;-82
2024/03/24 04:52:35;;;;;;;7.45;5.32;;;;;;;3.98;100.00;99369.63;4960408;28;20524;-85
2024/03/24 04:55:01;;;;;;;12.35;6.40;;;;;;;3.89;100.00;99353.25;4973481;28;20060;-81
2024/03/24 04:57:28;;;;;;;6.97;5.32;;;;;;;3.78;100.00;99348.97;4977435;28;20133;-82
2024/03/24 04:59:56;;;;;;;8.70;5.28;;;;;;;3.80;100.00;99348.97;4980281;28;20497;-84
2024/03/24 05:02:22;;;;;;;10.45;6.18;;;;;;;3.79;100.00;99342.94;4977313;28;20133;-83
2024/03/24 05:04:50;;;;;;;6.43;4.78;;;;;;;3.80;100.00;99334.28;4977319;28;20129;-81
2024/03/24 05:07:17;;;;;;;7.43;5.10;;;;;;;3.84;100.00;99340.31;4976827;28;20584;-82
2024/03/24 05:09:43;;;;;;;9.07;5.07;;;;;;;3.85;100.00;99338.59;4993314;28;20047;-82
2024/03/24 05:12:10;;;;;;;12.68;4.78;;;;;;;3.89;100.00;99336.00;4976116;28;20050;-83
2024/03/24 05:14:36;;;;;;;5.55;4.38;;;;;;;3.89;100.00;99333.41;4992201;28;20045;-82
2024/03/24 05:17:03;;;;;;;5.45;4.57;;;;;;;3.84;100.00;99329.13;4976082;28;20120;-82
2024/03/24 05:19:29;;;;;;;8.63;5.45;;;;;;;3.91;100.00;99325.63;4976182;28;20124;-84
2024/03/24 05:21:55;;;;;;;7.15;5.55;;;;;;;3.95;100.00;99323.03;4984676;28;20046;-83
2024/03/24 05:24:21;;;;;;;8.55;5.85;;;;;;;3.94;100.00;99325.63;4993790;28;20039;-83
2024/03/24 05:26:48;;;;;;;6.38;4.70;;;;;;;3.97;100.00;99315.25;4979205;28;20109;-82
2024/03/24 05:29:13;;;;;;;7.18;5.10;;;;;;;4.01;100.00;99316.13;4992026;28;20058;-82
2024/03/24 05:31:51;;;;;;;8.43;5.63;;;;;;;4.02;100.00;99315.25;4976491;28;20114;-82
2024/03/24 05:34:17;;;;;;;9.45;5.90;;;;;;;4.04;100.00;99313.50;4992857;28;20065;-83
2024/03/24 05:36:43;;;;;;;8.02;5.32;;;;;;;4.12;100.00;99307.44;4976765;28;20482;-82
2024/03/24 05:39:09;;;;;;;7.60;5.28;;;;;;;4.17;100.00;99303.94;4993605;28;20058;-84
2024/03/24 05:41:35;;;;;;;6.80;5.55;;;;;;;4.14;100.00;99303.09;4990842;28;20041;-82
2024/03/24 05:44:04;;;;;;;9.60;5.18;;;;;;;4.22;100.00;99313.41;4992576;28;20038;-81
2024/03/24 05:46:30;;;;;;;6.35;5.05;;;;;;;4.20;100.00;99299.63;4976625;28;20053;-83
2024/03/24 05:48:56;;;;;;;6.38;4.55;;;;;;;4.24;100.00;99308.25;4972391;28;20153;-81
2024/03/24 05:51:22;;;;;;;5.45;4.80;;;;;;;4.26;100.00;99291.84;4988751;28;20045;-82
2024/03/24 05:53:51;;;;;;;7.15;5.07;;;;;;;4.35;100.00;99301.25;4976211;28;20058;-84
2024/03/24 05:56:17;;;;;;;4.60;4.13;;;;;;;4.38;100.00;99303.84;4976685;28;20048;-82
2024/03/24 05:58:44;;;;;;;8.90;5.15;;;;;;;4.32;100.00;99292.66;4987839;28;20046;-82
2024/03/24 06:01:11;;;;;;;6.95;4.35;;;;;;;4.35;100.00;99303.00;5000861;28;20081;-83
2024/03/24 06:03:36;;;;;;;5.32;4.55;;;;;;;4.30;100.00;99288.34;4991404;28;20057;-83
2024/03/24 06:06:03;;;;;;;5.93;4.88;;;;;;;4.26;100.00;99298.72;4977734;28;20137;-83
2024/03/24 06:08:30;;;;;;;9.38;5.22;;;;;;;4.30;100.00;99305.59;4982094;28;20711;-84
2024/03/24 06:10:57;;;;;;;6.10;4.40;;;;;;;4.30;100.00;99301.31;4980239;28;20077;-83
2024/03/24 06:13:23;;;;;;;6.25;5.10;;;;;;;4.21;100.00;99295.28;4978101;28;20130;-82
2024/03/24 06:15:49;;;;;;;6.25;4.60;;;;;;;4.26;100.00;99301.31;4977538;28;20056;-83
2024/03/24 06:18:15;;;;;;;5.78;5.18;;;;;;;4.50;100.00;99302.91;4993062;28;20690;-83
2024/03/24 06:20:41;;;;;;;5.63;4.80;;;;;;;5.31;100.00;99300.56;4995878;28;20100;-82
2024/03/24 06:23:07;;;;;;;7.05;6.07;;;;;;;4.99;100.00;99287.88;4994561;28;20049;-84
2024/03/24 06:25:34;;;;;;;6.38;4.93;;;;;;;4.95;100.00;99292.22;4994434;28;20042;-86
2024/03/24 06:28:01;;;;;;;5.25;4.03;;;;;;;4.80;100.00;99283.69;4978998;28;20495;-83
2024/03/24 06:30:30;;;;;;;5.88;5.00;;;;;;;4.79;100.00;99283.72;4994112;28;20062;-84
2024/03/24 06:32:57;;;;;;;5.93;4.65;;;;;;;4.78;100.00;99282.88;4980205;28;20065;-85
2024/03/24 06:35:22;;;;;;;4.47;3.78;;;;;;;4.75;100.00;99282.88;5000128;28;20073;-83
2024/03/24 06:37:49;;;;;;;6.32;4.97;;;;;;;4.64;100.00;99277.78;4979156;28;20054;-82
2024/03/24 06:40:15;;;;;;;6.85;5.00;;;;;;;4.77;100.00;99285.44;4981415;28;20043;-84
2024/03/24 06:42:44;;;;;;;5.82;4.88;;;;;;;4.67;100.00;99279.47;4974573;28;20109;-84
2024/03/24 06:45:11;;;;;;;5.55;4.57;;;;;;;4.71;100.00;99286.34;4996783;28;20053;-83
2024/03/24 06:47:38;;;;;;;8.25;6.20;;;;;;;4.63;100.00;99285.56;4993779;28;20043;-84
2024/03/24 06:50:05;;;;;;;6.40;5.50;;;;;;;4.88;100.00;99293.16;4995899;28;20090;-83
2024/03/24 06:52:35;;;;;;;5.47;4.90;;;;;;;4.61;100.00;99303.69;4976925;28;20039;-84
2024/03/24 06:55:01;;;;;;;6.78;5.30;;;;;;;4.46;100.00;99289.13;4977286;28;20077;-83
2024/03/24 06:57:28;;;;;;;6.95;5.10;;;;;;;4.38;100.00;99280.53;4991582;28;20042;-83
2024/03/24 06:59:55;;;;;;;6.75;5.78;;;;;;;4.42;100.00;99278.75;4980521;28;20054;-84
2024/03/24 07:02:21;;;;;;;8.18;6.07;;;;;;;4.45;100.00;99278.75;4991258;28;20506;-82
2024/03/24 07:04:47;;;;;;;7.90;6.13;;;;;;;4.55;100.00;99277.84;4981414;28;20146;-84
2024/03/24 07:07:13;;;;;;;8.70;6.32;;;;;;;4.60;100.00;99281.25;4984924;28;20077;-82
2024/03/24 07:09:39;;;;;;;11.05;6.43;;;;;;;4.64;100.00;99275.19;4978675;28;20069;-83
2024/03/24 07:12:06;;;;;;;10.02;6.82;;;;;;;4.69;100.00;99274.28;4980048;28;20069;-83
2024/03/24 07:14:32;;;;;;;8.75;6.95;;;;;;;4.78;100.00;99274.22;4982106;28;20272;-82
2024/03/24 07:16:58;;;;;;;9.05;6.43;;;;;;;4.76;100.00;99281.16;4979585;28;20057;-84
2024/03/24 07:19:24;;;;;;;7.55;6.10;;;;;;;4.78;100.00;99279.41;4977115;28;20042;-82
2024/03/24 07:21:50;;;;;;;10.55;7.13;;;;;;;4.76;100.00;99276.81;4984289;28;20073;-84
2024/03/24 07:24:16;;;;;;;10.45;8.13;;;;;;;4.87;100.00;99270.69;4990288;28;20470;-83
2024/03/24 07:26:43;;;;;;;9.38;7.00;;;;;;;4.85;100.00;99272.44;4991611;28;20057;-85
2024/03/24 07:29:09;;;;;;;9.02;6.80;;;;;;;4.99;100.00;99280.09;4975079;28;20061;-83
2024/03/24 07:31:35;;;;;;;10.35;7.03;;;;;;;5.02;100.00;99280.94;4977509;28;20046;-82
2024/03/24 07:34:01;;;;;;;10.52;6.60;;;;;;;4.94;100.00;99273.22;4986004;28;20074;-82
2024/03/24 07:36:27;;;;;;;11.38;7.32;;;;;;;5.11;100.00;99274.78;4976531;28;20057;-83
2024/03/24 07:38:53;;;;;;;9.93;6.63;;;;;;;5.11;100.00;99273.09;4993228;28;20049;-85
2024/03/24 07:41:21;;;;;;;9.07;6.95;;;;;;;5.12;100.00;99277.41;4977243;28;20049;-82
2024/03/24 07:43:48;;;;;;;11.75;7.35;;;;;;;5.20;100.00;99279.94;4981911;28;20401;-83
2024/03/24 07:46:17;;;;;;;8.45;6.18;;;;;;;5.27;100.00;99270.34;4979698;28;20054;-83
2024/03/24 07:48:42;;;;;;;7.47;6.65;;;;;;;5.39;100.00;99283.19;5004680;28;20050;-85
2024/03/24 07:51:09;;;;;;;6.78;5.65;;;;;;;5.36;100.00;99278.03;4974981;28;20050;-82
2024/03/24 07:53:37;;;;;;;6.82;5.43;;;;;;;5.44;100.00;99283.16;4983040;28;20065;-82
2024/03/24 07:56:07;;;;;;;6.97;4.50;;;;;;;5.33;100.00;99275.44;4980950;28;20058;-83
2024/03/24 07:58:33;;;;;;;5.85;4.97;;;;;;;5.31;100.00;99290.19;4998191;28;20038;-82
2024/03/24 08:01:00;;;;;;;5.28;4.85;;;;;;;5.38;100.00;99291.00;4994210;28;20473;-85
2024/03/24 08:03:26;;;;;;;5.85;4.80;;;;;;;5.38;100.00;99293.59;4985114;28;20070;-81
2024/03/24 08:05:53;;;;;;;7.70;5.13;;;;;;;5.46;100.00;99299.56;4979847;28;20283;-84
2024/03/24 08:08:19;;;;;;;6.57;4.30;;;;;;;5.32;100.00;99291.91;4982120;28;20050;-83
2024/03/24 08:10:45;;;;;;;7.68;5.22;;;;;;;5.36;100.00;99298.78;4979035;28;20487;-84
2024/03/24 08:13:11;;;;;;;5.50;4.45;;;;;;;5.33;100.00;99303.16;4977074;28;20046;-83
2024/03/24 08:15:38;;;;;;;4.40;3.42;;;;;;;5.25;100.00;99301.50;4975026;28;20047;-83
2024/03/24 08:18:04;;;;;;;6.43;3.72;;;;;;;5.22;100.00;99306.69;4983371;28;20409;-83
2024/03/24 08:20:31;;;;;;;3.88;3.47;;;;;;;5.21;100.00;99319.69;4992506;28;20053;-83
2024/03/24 08:22:57;;;;;;;5.20;3.58;;;;;;;5.13;100.00;99311.97;4995826;28;20142;-82
2024/03/24 08:25:35;;;;;;;6.05;3.08;;;;;;;5.10;100.00;99317.19;5014882;28;20030;-85
2024/03/24 08:28:04;;;;;;;4.78;3.60;;;;;;;5.08;100.00;99311.16;4998046;28;20487;-84
2024/03/24 08:30:34;;;;;;;3.97;3.13;;;;;;;4.99;100.00;99316.41;4983838;28;20061;-81
2024/03/24 08:33:01;;;;;;;4.47;3.42;;;;;;;5.00;100.00;99319.00;4987039;28;20162;-85
2024/03/24 08:35:37;;;;;;;5.75;4.15;;;;;;;5.12;100.00;99324.09;4964629;28;20055;-85
2024/03/24 08:38:02;;;;;;;3.50;3.13;;;;;;;5.05;100.00;99313.78;4999894;28;20149;-83
2024/03/24 08:40:31;;;;;;;3.88;3.58;;;;;;;5.13;100.00;99312.81;4977136;28;20582;-82
2024/03/24 08:42:56;;;;;;;3.20;2.92;;;;;;;5.13;100.00;99314.56;4987169;28;20474;-83
2024/03/24 08:45:23;;;;;;;3.58;3.28;;;;;;;5.21;100.00;99324.88;4996577;28;20097;-82
2024/03/24 08:47:48;;;;;;;3.63;3.25;;;;;;;5.32;100.00;99311.81;4979890;28;20051;-84
2024/03/24 08:50:15;;;;;;;3.50;3.20;;;;;;;5.39;100.00;99316.06;4980775;28;20506;-84
2024/03/24 08:52:40;;;;;;;4.78;3.10;;;;;;;5.49;100.00;99316.84;4993051;28;20129;-82
2024/03/24 08:55:07;;;;;;;3.05;2.85;;;;;;;5.43;100.00;99315.16;4973700;28;20142;-81
2024/03/24 08:57:35;;;;;;;3.00;2.55;;;;;;;5.51;100.00;99315.09;4993989;28;20077;-83
2024/03/24 09:00:03;;;;;;;3.28;3.05;;;;;;;5.72;100.00;99316.59;4976680;28;20085;-82
2024/03/24 09:02:28;;;;;;;4.32;2.28;;;;;;;5.71;100.00;99307.09;4981798;28;20522;-85
2024/03/24 09:04:55;;;;;;;4.82;2.88;;;;;;;5.95;100.00;99312.00;4993257;28;20139;-83
2024/03/24 09:07:21;;;;;;;4.72;3.78;;;;;;;6.35;100.00;99309.81;4973652;28;20055;-82
2024/03/24 09:09:49;;;;;;;3.33;3.03;;;;;;;6.75;100.00;99301.47;4966589;28;20054;-83
2024/03/24 09:12:15;;;;;;;2.78;2.55;;;;;;;6.62;100.00;99299.06;4980005;28;20057;-84
2024/03/24 09:14:43;;;;;;;3.70;3.13;;;;;;;6.55;100.00;99304.34;4990155;28;20137;-84
2024/03/24 09:17:08;;;;;;;5.95;3.10;;;;;;;7.02;100.00;99301.91;4988983;28;20046;-82
2024/03/24 09:19:37;;;;;;;2.70;2.47;;;;;;;7.68;100.00;99289.47;4977718;28;20051;-84
2024/03/24 09:22:08;;;;;;;3.45;2.95;;;;;;;8.58;100.00;99288.53;4973185;28;20386;-83
2024/03/24 09:24:37;;;;;;;1.75;1.65;;;;;;;8.67;100.00;99282.22;4983844;28;20065;-79
2024/03/24 09:27:06;;;;;;;1.38;1.27;;;;;;;8.63;100.00;99283.19;4989467;28;20133;-82
2024/03/24 09:29:35;;;;;;;1.35;1.20;;;;;;;8.14;99.38;99282.50;4992997;28;20069;-83
2024/03/24 09:32:32;;;;;;;3.10;1.80;;;;;;;8.42;100.00;99293.16;4977185;28;20089;-81
2024/03/24 09:34:59;;;;;;;3.13;1.20;;;;;;;8.49;99.45;99289.59;4973330;28;20061;-84
2024/03/24 09:37:24;;;;;;;2.60;1.25;;;;;;;8.33;100.00;99291.66;4996904;28;20045;-85
2024/03/24 09:39:51;;;;;;;4.60;1.45;;;;;;;8.26;99.67;99284.84;4982265;28;20070;-87
2024/03/24 09:42:19;;;;;;;4.68;2.45;;;;;;;8.52;100.00;99291.25;4996829;28;20548;-87
2024/03/24 09:44:47;;;;;;;2.70;1.17;;;;;;;8.31;99.41;99282.13;4999143;28;20045;-86
2024/03/24 09:47:33;;;;;;;2.58;1.10;;;;;;;8.36;100.00;99298.53;4984432;28;20058;-85
2024/03/24 09:50:00;;;;;;;4.80;1.25;;;;;;;8.07;100.00;99292.16;4994729;28;20050;-87
2024/03/24 09:52:30;;;;;;;1.40;1.30;;;;;;;8.00;99.74;99281.03;4976973;28;20034;-87
2024/03/24 09:54:58;;;;;;;4.57;1.30;;;;;;;7.77;100.00;99278.91;4985240;28;20137;-87
2024/03/24 09:57:35;;;;;;;4.63;1.30;;;;;;;8.05;99.82;99289.59;4994529;28;20553;-86
2024/03/24 10:00:05;;;;;;;1.60;1.30;;;;;;;8.44;96.37;99274.00;4998358;28;20149;-87
2024/03/24 10:02:31;;;;;;;1.70;1.60;;;;;;;8.46;96.23;99274.00;4974486;28;20132;-84
2024/03/24 10:04:59;;;;;;;3.28;1.73;;;;;;;8.69;95.64;99281.28;4979303;28;20054;-84
2024/03/24 10:07:24;;;;;;;5.88;1.77;;;;;;;8.92;95.19;99277.28;4984065;28;20050;-85
2024/03/24 10:09:51;;;;;;;7.10;1.02;;;;;;;8.21;96.99;99282.34;4984933;28;20062;-87
2024/03/24 10:12:18;;;;;;;7.88;1.83;;;;;;;7.96;97.25;99271.56;5002774;28;20074;-86
2024/03/24 10:14:45;;;;;;;4.97;1.85;;;;;;;8.05;97.82;99271.34;4985390;28;20751;-88
2024/03/24 10:17:16;;;;;;;2.80;1.10;;;;;;;8.09;95.66;99282.59;4996287;28;20042;-87
2024/03/24 10:20:01;;;;;;;6.10;1.48;;;;;;;8.23;95.88;99275.31;4981476;28;20137;-87
2024/03/24 10:22:27;;;;;;;3.33;1.52;;;;;;;8.13;94.87;99267.75;4999062;28;20117;-85
2024/03/24 10:24:53;;;;;;;1.95;1.67;;;;;;;8.28;95.45;99263.06;4985391;28;20042;-86
2024/03/24 10:27:19;;;;;;;4.25;1.75;;;;;;;8.20;96.73;99264.09;4999664;28;20647;-88
2024/03/24 10:29:45;;;;;;;4.60;1.23;;;;;;;8.02;95.91;99262.78;4981004;28;20178;-86
2024/03/24 10:32:11;;;;;;;2.13;1.35;;;;;;;8.06;95.25;99257.44;4995408;28;20057;-88
2024/03/24 10:34:40;;;;;;;3.30;1.02;;;;;;;8.06;95.51;99256.59;4981399;28;20045;-87
2024/03/24 10:37:09;;;;;;;3.03;1.00;;;;;;;8.10;95.88;99258.25;4975950;28;20065;-85
2024/03/24 10:39:37;;;;;;;5.95;1.63;;;;;;;8.23;94.81;99253.63;5000044;28;20046;-87
2024/03/24 10:42:09;;;;;;;3.55;1.35;;;;;;;7.87;93.46;99264.78;4984277;28;20065;-87
2024/03/24 10:44:39;;;;;;;3.83;1.00;;;;;;;7.76;92.53;99265.00;4977814;28;20045;-84
2024/03/24 10:47:07;;;;;;;3.83;1.90;;;;;;;7.71;94.34;99259.03;4983604;28;20069;-84
2024/03/24 10:49:35;;;;;;;4.97;1.67;;;;;;;7.95;94.20;99264.63;4985643;28;20082;-86
2024/03/24 10:52:05;;;;;;;2.95;1.30;;;;;;;8.46;90.65;99268.78;4980498;28;20116;-88
2024/03/24 10:54:32;;;;;;;4.63;1.30;;;;;;;9.06;84.35;99259.53;4990437;28;20062;-87
2024/03/24 10:57:01;;;;;;;5.55;1.30;;;;;;;8.92;82.84;99267.69;4978201;28;20502;-85
2024/03/24 10:59:28;;;;;;;3.72;1.33;;;;;;;8.58;83.61;99262.44;4994208;28;20037;-86
2024/03/24 11:01:53;;;;;;;3.30;0.85;;;;;;;8.85;82.65;99257.44;4977146;28;20074;-87
2024/03/24 11:04:20;;;;;;;5.07;1.35;;;;;;;9.02;79.62;99242.25;4979278;28;20196;-89
2024/03/24 11:06:46;;;;;;;2.97;1.17;;;;;;;9.57;75.33;99250.38;4980897;28;20058;-89
2024/03/24 11:09:13;;;;;;;4.78;1.25;;;;;;;9.52;72.71;99246.19;4982379;28;20051;-88
2024/03/24 11:11:40;;;;;;;4.18;1.40;;;;;;;10.40;71.50;99244.53;4973653;28;20520;-88
2024/03/24 11:14:09;;;;;;;5.07;1.55;;;;;;;10.50;68.83;99234.59;4995201;28;20039;-86
2024/03/24 11:16:35;;;;;;;2.85;0.75;;;;;;;10.47;68.17;99233.84;4980633;28;20104;-86
2024/03/24 11:19:11;;;;;;;2.67;0.98;;;;;;;10.43;67.87;99220.03;4983435;28;20050;-85
2024/03/24 11:21:39;;;;;;;4.72;0.88;;;;;;;10.15;68.43;99236.50;4983184;28;20070;-88
2024/03/24 11:24:30;;;;;;;8.98;1.10;;;;;;;10.09;69.66;99232.34;4977260;28;20052;-85
2024/03/24 11:27:01;;;;;;;6.80;1.00;;;;;;;9.73;70.98;99224.66;4984299;28;20046;-90
2024/03/24 11:29:45;;;;;;;2.90;1.30;;;;;;;10.55;67.34;99217.00;5064765;23;20093;-90
2024/03/24 11:32:12;;;;;;;1.20;0.80;;;;;;;11.13;66.41;99218.59;4982848;28;20061;-88